Time;durP1;ratioP1;P1;durP2;ratioP2;P2;SDS_P1;SDS_P2;PMS_P1;PMS_P2;Temp;Humidity;BMP_temperature;BMP_pressure;BME280_temperature;BME280_humidity;BME280_pressure;Samples;Min_cycle;Max_cycle;Signal;HPM_P1;HPM_P2
2022/04/27 00:00:31;;;;;;;0.40;0.40;;;6.70;99.90;;;;;;5049015;28;20029;-72
2022/04/27 00:02:57;;;;;;;0.50;0.50;;;6.70;99.90;;;;;;5045337;28;20033;-73
2022/04/27 00:05:24;;;;;;;1.40;1.30;;;6.70;99.90;;;;;;5049559;28;20625;-73
2022/04/27 00:07:49;;;;;;;0.40;0.40;;;6.70;99.90;;;;;;5053215;28;20114;-73
2022/04/27 00:10:15;;;;;;;0.55;0.55;;;6.70;99.90;;;;;;5050521;28;20036;-72
2022/04/27 00:12:41;;;;;;;0.70;0.70;;;6.80;99.90;;;;;;5031978;28;20036;-72
2022/04/27 00:15:08;;;;;;;0.70;0.70;;;6.80;99.90;;;;;;5045365;28;20481;-73
2022/04/27 00:17:34;;;;;;;0.50;0.50;;;6.80;99.90;;;;;;5028205;28;20074;-72
2022/04/27 00:20:00;;;;;;;1.30;1.30;;;6.90;99.90;;;;;;5038559;28;20815;-73
2022/04/27 00:22:26;;;;;;;0.80;0.80;;;7.00;99.90;;;;;;5049262;28;20374;-72
2022/04/27 00:24:52;;;;;;;0.50;0.50;;;7.00;99.90;;;;;;5049385;28;20044;-72
2022/04/27 00:27:17;;;;;;;0.55;0.55;;;7.10;99.90;;;;;;5031881;28;20463;-73
2022/04/27 00:29:43;;;;;;;0.50;0.50;;;7.10;99.90;;;;;;5032658;28;20068;-72
2022/04/27 00:32:09;;;;;;;0.50;0.50;;;7.20;99.90;;;;;;5048663;28;20579;-73
2022/04/27 00:34:35;;;;;;;0.60;0.60;;;7.20;99.90;;;;;;5049450;28;20120;-72
2022/04/27 00:37:01;;;;;;;0.50;0.50;;;7.20;99.90;;;;;;5054410;28;20067;-72
2022/04/27 00:39:26;;;;;;;0.50;0.50;;;7.20;99.90;;;;;;5049551;28;20075;-73
2022/04/27 00:42:02;;;;;;;0.50;0.50;;;7.20;99.90;;;;;;5034012;28;20091;-72
2022/04/27 00:44:32;;;;;;;0.30;0.30;;;7.10;99.90;;;;;;5050960;28;20574;-72
2022/04/27 00:46:58;;;;;;;0.80;0.80;;;7.10;99.90;;;;;;5052028;28;20119;-72
2022/04/27 00:49:25;;;;;;;2.65;2.50;;;7.10;99.90;;;;;;5064776;28;20044;-73
2022/04/27 00:51:51;;;;;;;0.40;0.40;;;7.10;99.90;;;;;;5032740;28;20072;-73
2022/04/27 00:54:22;;;;;;;0.40;0.40;;;7.10;99.90;;;;;;5050549;28;20171;-72
2022/04/27 00:56:49;;;;;;;0.50;0.50;;;7.10;99.90;;;;;;5052873;28;20045;-72
2022/04/27 00:59:15;;;;;;;0.50;0.50;;;7.00;99.90;;;;;;5081379;28;20610;-73
2022/04/27 01:01:40;;;;;;;0.50;0.50;;;7.10;99.90;;;;;;5049954;28;20093;-73
2022/04/27 01:04:07;;;;;;;0.45;0.45;;;7.00;99.90;;;;;;5033266;28;20572;-72
2022/04/27 01:06:34;;;;;;;0.40;0.40;;;7.00;99.90;;;;;;5046344;28;20040;-73
2022/04/27 01:09:00;;;;;;;0.88;0.88;;;7.00;99.90;;;;;;5030525;28;20181;-72
2022/04/27 01:11:26;;;;;;;0.63;0.63;;;7.00;99.90;;;;;;5032420;28;20120;-73
2022/04/27 01:13:51;;;;;;;0.40;0.40;;;7.10;99.90;;;;;;5037615;28;20056;-72
2022/04/27 01:16:17;;;;;;;0.50;0.50;;;7.00;99.90;;;;;;5044257;28;20036;-72
2022/04/27 01:18:43;;;;;;;0.50;0.50;;;7.00;99.90;;;;;;5056192;28;20037;-72
2022/04/27 01:21:09;;;;;;;0.50;0.50;;;7.10;99.90;;;;;;5048513;28;20047;-72
2022/04/27 01:23:35;;;;;;;0.50;0.50;;;7.10;99.90;;;;;;5048945;28;20501;-72
2022/04/27 01:26:05;;;;;;;0.60;0.60;;;7.10;99.90;;;;;;5048466;28;20125;-72
2022/04/27 01:28:32;;;;;;;0.55;0.55;;;7.10;99.90;;;;;;5045420;28;20115;-72
2022/04/27 01:31:02;;;;;;;0.50;0.50;;;7.20;99.90;;;;;;5049633;28;20045;-72
2022/04/27 01:33:34;;;;;;;0.50;0.50;;;7.20;99.90;;;;;;5028630;28;20039;-72
2022/04/27 01:36:00;;;;;;;0.50;0.50;;;7.20;99.90;;;;;;5041265;28;20054;-72
2022/04/27 01:38:26;;;;;;;0.50;0.50;;;7.20;99.90;;;;;;5043071;28;20054;-72
2022/04/27 01:40:55;;;;;;;0.52;0.52;;;7.30;99.90;;;;;;5038809;28;20377;-72
2022/04/27 01:43:24;;;;;;;0.85;0.85;;;7.30;99.90;;;;;;5040378;28;20134;-72
2022/04/27 01:45:53;;;;;;;0.60;0.60;;;7.40;99.90;;;;;;5048942;28;20063;-72
2022/04/27 01:48:19;;;;;;;3.50;2.13;;;7.40;99.90;;;;;;5047962;28;20044;-73
2022/04/27 01:50:45;;;;;;;0.95;0.95;;;7.40;99.90;;;;;;5039562;28;20095;-72
2022/04/27 01:55:56;;;;;;;13.35;7.93;;;7.50;99.90;;;;;;5048422;28;20814;-72
2022/04/27 01:58:22;;;;;;;0.50;0.50;;;7.60;99.90;;;;;;5038404;28;20097;-72
2022/04/27 02:00:48;;;;;;;0.90;0.90;;;7.60;99.90;;;;;;5031347;28;20401;-72
2022/04/27 02:03:18;;;;;;;0.40;0.40;;;7.60;99.90;;;;;;5033767;28;20051;-72
2022/04/27 02:05:45;;;;;;;0.47;0.47;;;7.60;99.90;;;;;;5043547;28;20036;-72
2022/04/27 02:08:11;;;;;;;1.05;0.88;;;7.60;99.90;;;;;;5033946;28;20782;-72
2022/04/27 02:10:37;;;;;;;0.50;0.50;;;7.60;99.90;;;;;;5051580;28;20032;-72
2022/04/27 02:13:07;;;;;;;0.57;0.57;;;7.60;99.90;;;;;;5049996;28;20040;-72
2022/04/27 02:15:33;;;;;;;1.35;1.35;;;7.60;99.90;;;;;;5044141;28;20032;-72
2022/04/27 02:18:00;;;;;;;0.50;0.50;;;7.60;99.90;;;;;;5035421;28;20050;-72
2022/04/27 02:20:25;;;;;;;0.30;0.30;;;7.60;99.90;;;;;;5028076;28;20048;-72
2022/04/27 02:22:52;;;;;;;0.40;0.40;;;7.60;99.90;;;;;;5041033;28;20412;-72
2022/04/27 02:25:22;;;;;;;0.40;0.40;;;7.60;99.90;;;;;;5034077;28;20055;-74
2022/04/27 02:27:49;;;;;;;0.40;0.40;;;7.60;99.90;;;;;;5042406;28;20509;-72
2022/04/27 02:30:15;;;;;;;0.40;0.40;;;7.50;99.90;;;;;;5029158;28;20033;-72
2022/04/27 02:32:42;;;;;;;0.60;0.60;;;7.50;99.90;;;;;;5041483;28;20115;-72
2022/04/27 02:35:08;;;;;;;0.40;0.40;;;7.50;99.90;;;;;;5050523;28;20076;-72
2022/04/27 02:37:35;;;;;;;0.40;0.40;;;7.50;99.90;;;;;;5051927;28;20099;-72
2022/04/27 02:40:02;;;;;;;0.40;0.40;;;7.50;99.90;;;;;;5037053;28;20048;-72
2022/04/27 02:42:28;;;;;;;0.50;0.50;;;7.50;99.90;;;;;;5051963;28;20037;-72
2022/04/27 02:44:56;;;;;;;0.47;0.47;;;7.40;99.90;;;;;;5053022;28;20102;-72
2022/04/27 02:47:22;;;;;;;0.82;0.82;;;7.40;99.90;;;;;;5034123;28;20059;-72
2022/04/27 02:52:32;;;;;;;3.28;3.08;;;7.40;99.90;;;;;;5042755;28;20118;-72
2022/04/27 02:54:58;;;;;;;0.50;0.50;;;7.40;99.90;;;;;;5008767;28;20505;-72
2022/04/27 02:57:24;;;;;;;0.50;0.50;;;7.40;99.90;;;;;;5029427;28;20610;-72
2022/04/27 02:59:50;;;;;;;0.40;0.40;;;7.40;99.90;;;;;;5022481;28;20048;-72
2022/04/27 03:02:16;;;;;;;0.40;0.40;;;7.40;99.90;;;;;;5014891;28;20053;-72
2022/04/27 03:04:42;;;;;;;0.40;0.40;;;7.40;99.90;;;;;;5025266;28;20537;-72
2022/04/27 03:07:07;;;;;;;0.45;0.45;;;7.40;99.90;;;;;;5028407;28;20103;-72
2022/04/27 03:09:33;;;;;;;0.40;0.40;;;7.40;99.90;;;;;;5018359;28;20036;-72
2022/04/27 03:12:00;;;;;;;0.50;0.50;;;7.40;99.90;;;;;;5032391;28;20157;-72
2022/04/27 03:14:27;;;;;;;0.30;0.30;;;7.40;99.90;;;;;;5008448;28;20041;-72
2022/04/27 03:16:52;;;;;;;0.32;0.32;;;7.40;99.90;;;;;;5032536;28;20504;-72
2022/04/27 03:19:18;;;;;;;0.35;0.35;;;7.30;99.90;;;;;;5030462;28;20087;-72
2022/04/27 03:21:44;;;;;;;0.75;0.75;;;7.30;99.90;;;;;;5007247;28;20397;-72
2022/04/27 03:24:10;;;;;;;0.30;0.30;;;7.30;99.90;;;;;;5013862;28;20044;-72
2022/04/27 03:26:36;;;;;;;0.40;0.40;;;7.30;99.90;;;;;;5033070;28;20048;-72
2022/04/27 03:29:03;;;;;;;0.50;0.50;;;7.30;99.90;;;;;;5019296;28;20041;-74
2022/04/27 03:31:29;;;;;;;0.40;0.40;;;7.30;99.90;;;;;;5015324;28;20420;-72
2022/04/27 03:33:54;;;;;;;0.50;0.50;;;7.30;99.90;;;;;;5028318;28;20045;-72
2022/04/27 03:36:20;;;;;;;0.40;0.40;;;7.30;99.90;;;;;;5020803;28;20061;-72
2022/04/27 03:38:48;;;;;;;0.50;0.50;;;7.30;99.90;;;;;;5011963;28;20037;-72
2022/04/27 03:41:15;;;;;;;0.30;0.30;;;7.30;99.90;;;;;;5030248;28;20411;-72
2022/04/27 03:43:40;;;;;;;0.55;0.55;;;7.30;99.90;;;;;;5036550;28;20048;-72
2022/04/27 03:46:06;;;;;;;0.40;0.40;;;7.20;99.90;;;;;;5018693;28;20062;-72
2022/04/27 03:48:31;;;;;;;0.30;0.30;;;7.30;99.90;;;;;;5026294;28;20401;-72
2022/04/27 03:50:57;;;;;;;0.30;0.30;;;7.30;99.90;;;;;;5014161;28;20132;-72
2022/04/27 03:53:22;;;;;;;0.43;0.43;;;7.30;99.90;;;;;;5031207;28;20068;-72
2022/04/27 03:55:48;;;;;;;0.40;0.40;;;7.30;99.90;;;;;;5011872;28;20129;-72
2022/04/27 03:58:14;;;;;;;0.30;0.30;;;7.20;99.90;;;;;;5022086;28;20045;-72
2022/04/27 04:00:39;;;;;;;0.43;0.43;;;7.30;99.90;;;;;;5025323;28;20040;-72
2022/04/27 04:03:05;;;;;;;0.40;0.40;;;7.30;99.90;;;;;;5028989;28;20045;-72
2022/04/27 04:05:31;;;;;;;0.40;0.40;;;7.30;99.90;;;;;;5029265;28;20079;-72
2022/04/27 04:07:57;;;;;;;0.40;0.40;;;7.30;99.90;;;;;;5016144;28;20079;-72
2022/04/27 04:10:23;;;;;;;0.40;0.40;;;7.30;99.90;;;;;;5028174;28;20037;-72
2022/04/27 04:12:49;;;;;;;0.40;0.40;;;7.30;99.90;;;;;;5029607;28;20040;-72
2022/04/27 04:15:15;;;;;;;0.50;0.50;;;7.30;99.90;;;;;;5013002;28;20063;-72
2022/04/27 04:17:44;;;;;;;0.40;0.40;;;7.30;99.90;;;;;;5017804;28;20037;-72
2022/04/27 04:20:12;;;;;;;0.40;0.40;;;7.30;99.90;;;;;;5059793;28;20044;-72
2022/04/27 04:22:37;;;;;;;0.30;0.30;;;7.30;99.90;;;;;;5016836;28;20136;-72
2022/04/27 04:30:32;;;;;;;0.82;0.82;;;7.30;99.90;;;;;;5010153;28;20092;-72
2022/04/27 04:32:58;;;;;;;0.40;0.40;;;7.30;99.90;;;;;;5017808;28;20142;-72
2022/04/27 04:35:23;;;;;;;0.40;0.40;;;7.30;99.90;;;;;;5021823;28;20451;-72
2022/04/27 04:37:49;;;;;;;0.30;0.30;;;7.30;99.90;;;;;;5024313;28;20045;-72
2022/04/27 04:40:15;;;;;;;0.40;0.40;;;7.40;99.90;;;;;;5011939;28;20037;-72
2022/04/27 04:42:40;;;;;;;0.45;0.45;;;7.40;99.90;;;;;;5032971;28;20037;-73
2022/04/27 04:45:07;;;;;;;0.40;0.40;;;7.40;99.90;;;;;;5032769;28;20061;-73
2022/04/27 04:47:32;;;;;;;0.50;0.50;;;7.40;99.90;;;;;;5031279;28;20056;-73
2022/04/27 04:49:58;;;;;;;0.30;0.30;;;7.40;99.90;;;;;;5030022;28;20053;-72
2022/04/27 04:52:24;;;;;;;0.40;0.40;;;7.40;99.90;;;;;;5034895;28;20048;-73
2022/04/27 04:54:49;;;;;;;0.30;0.30;;;7.50;99.90;;;;;;5020040;28;20471;-72
2022/04/27 04:57:15;;;;;;;5.63;1.50;;;7.50;99.90;;;;;;5021848;28;20670;-73
2022/04/27 04:59:41;;;;;;;0.30;0.30;;;7.50;99.90;;;;;;5012412;28;20476;-73
2022/04/27 05:02:06;;;;;;;0.30;0.30;;;7.50;99.90;;;;;;5019761;28;20037;-73
2022/04/27 05:04:32;;;;;;;0.40;0.40;;;7.50;99.90;;;;;;5035370;28;20095;-73
2022/04/27 05:06:57;;;;;;;0.40;0.40;;;7.50;99.90;;;;;;5020653;28;20504;-73
2022/04/27 05:09:23;;;;;;;0.45;0.45;;;7.50;99.90;;;;;;5016733;28;20048;-73
2022/04/27 05:11:49;;;;;;;0.45;0.45;;;7.60;99.90;;;;;;5019696;28;20036;-73
2022/04/27 05:14:14;;;;;;;0.38;0.38;;;7.60;99.90;;;;;;5034921;28;20091;-73
2022/04/27 05:16:40;;;;;;;0.40;0.40;;;7.60;99.90;;;;;;5015974;28;20582;-73
2022/04/27 05:19:05;;;;;;;0.40;0.40;;;7.60;99.90;;;;;;5020078;28;20039;-73
2022/04/27 05:21:31;;;;;;;0.47;0.47;;;7.70;99.90;;;;;;5033171;28;20075;-73
2022/04/27 05:23:57;;;;;;;0.38;0.38;;;7.70;99.90;;;;;;5036044;28;20076;-73
2022/04/27 05:26:22;;;;;;;0.30;0.30;;;7.80;99.90;;;;;;5018619;28;20492;-73
2022/04/27 05:34:18;;;;;;;0.38;0.38;;;7.90;99.90;;;;;;5030587;28;20053;-73
2022/04/27 05:36:43;;;;;;;0.40;0.40;;;8.00;99.90;;;;;;5016849;28;20052;-73
2022/04/27 05:39:09;;;;;;;0.40;0.40;;;8.00;99.90;;;;;;5032284;28;20051;-73
2022/04/27 05:41:34;;;;;;;0.40;0.40;;;8.00;99.90;;;;;;5037789;28;20182;-73
2022/04/27 05:44:02;;;;;;;0.30;0.30;;;8.10;99.90;;;;;;5034466;28;20037;-73
2022/04/27 05:46:28;;;;;;;0.40;0.40;;;8.10;99.90;;;;;;5041652;28;20492;-73
2022/04/27 05:48:54;;;;;;;0.22;0.22;;;8.20;99.90;;;;;;5018288;28;20056;-73
2022/04/27 05:51:20;;;;;;;0.30;0.30;;;8.20;99.90;;;;;;5032536;28;20059;-73
2022/04/27 05:53:45;;;;;;;0.50;0.50;;;8.30;99.90;;;;;;5049770;28;20037;-73
2022/04/27 05:56:12;;;;;;;0.32;0.32;;;8.30;99.90;;;;;;5047076;28;20076;-73
2022/04/27 05:58:38;;;;;;;0.40;0.40;;;8.30;99.90;;;;;;5046554;28;20514;-73
2022/04/27 06:01:04;;;;;;;0.60;0.60;;;8.40;99.90;;;;;;5035201;28;20163;-73
2022/04/27 06:03:30;;;;;;;0.40;0.40;;;8.40;99.90;;;;;;5028548;28;20041;-73
2022/04/27 06:05:55;;;;;;;0.40;0.40;;;8.40;99.90;;;;;;5030527;28;20045;-73
2022/04/27 06:08:21;;;;;;;0.30;0.30;;;8.50;99.90;;;;;;5051253;28;20052;-73
2022/04/27 06:10:47;;;;;;;0.40;0.40;;;8.50;99.90;;;;;;5047429;28;20064;-73
2022/04/27 06:13:13;;;;;;;0.20;0.20;;;8.50;99.90;;;;;;5032994;28;20036;-73
2022/04/27 06:15:39;;;;;;;0.30;0.30;;;8.60;99.90;;;;;;5048752;28;20048;-73
2022/04/27 06:18:05;;;;;;;0.38;0.38;;;8.60;99.90;;;;;;5035998;28;20051;-73
2022/04/27 06:20:30;;;;;;;0.30;0.30;;;8.70;99.90;;;;;;5047613;28;20037;-73
2022/04/27 06:22:57;;;;;;;0.93;0.93;;;8.70;99.90;;;;;;5027310;28;20040;-73
2022/04/27 06:25:25;;;;;;;0.30;0.30;;;8.80;99.90;;;;;;5034438;28;20052;-73
2022/04/27 06:27:51;;;;;;;0.28;0.28;;;8.90;99.90;;;;;;5049055;28;20400;-73
2022/04/27 06:30:17;;;;;;;0.30;0.30;;;8.90;99.90;;;;;;5047822;28;20041;-73
2022/04/27 06:32:42;;;;;;;0.30;0.30;;;9.00;99.90;;;;;;5049822;28;20028;-73
2022/04/27 06:35:12;;;;;;;0.35;0.35;;;9.00;99.90;;;;;;5045437;28;20571;-73
2022/04/27 06:37:41;;;;;;;0.30;0.30;;;9.00;99.90;;;;;;5046421;28;20385;-73
2022/04/27 06:40:08;;;;;;;0.30;0.30;;;9.00;99.90;;;;;;5046296;28;20037;-73
2022/04/27 06:42:34;;;;;;;0.52;0.52;;;9.20;99.90;;;;;;5032163;28;20047;-73
2022/04/27 06:45:04;;;;;;;0.20;0.20;;;9.20;99.90;;;;;;5027376;28;20037;-73
2022/04/27 06:47:30;;;;;;;0.30;0.30;;;9.30;99.90;;;;;;5027739;28;20110;-73
2022/04/27 06:49:56;;;;;;;0.35;0.35;;;9.40;99.90;;;;;;5026027;28;20040;-73
2022/04/27 06:52:21;;;;;;;0.30;0.30;;;9.50;99.90;;;;;;5041524;28;20041;-73
2022/04/27 06:54:47;;;;;;;0.25;0.25;;;9.60;99.90;;;;;;5029864;28;20447;-73
2022/04/27 06:57:13;;;;;;;0.20;0.20;;;9.70;99.90;;;;;;5030112;28;20049;-73
2022/04/27 06:59:38;;;;;;;0.30;0.30;;;9.80;99.90;;;;;;5024052;28;20033;-73
2022/04/27 07:02:05;;;;;;;0.20;0.20;;;9.90;99.90;;;;;;5066111;28;20415;-73
2022/04/27 07:04:34;;;;;;;0.32;0.32;;;10.00;99.90;;;;;;5043379;28;20040;-73
2022/04/27 07:07:00;;;;;;;0.30;0.30;;;10.10;99.90;;;;;;5051274;28;20044;-73
2022/04/27 07:09:26;;;;;;;0.30;0.30;;;10.10;99.90;;;;;;5049763;28;20127;-73
2022/04/27 07:11:52;;;;;;;0.20;0.20;;;10.10;99.90;;;;;;5031146;28;20075;-73
2022/04/27 07:14:19;;;;;;;0.55;0.55;;;10.20;99.90;;;;;;5026372;28;20075;-73
2022/04/27 07:16:45;;;;;;;0.20;0.20;;;10.20;99.90;;;;;;5029005;28;20145;-73
2022/04/27 07:19:11;;;;;;;0.20;0.20;;;10.30;99.90;;;;;;5030576;28;20036;-73
2022/04/27 07:21:37;;;;;;;0.40;0.40;;;10.30;99.90;;;;;;5050301;28;20041;-73
2022/04/27 07:24:03;;;;;;;0.35;0.35;;;10.40;99.90;;;;;;5049184;28;20401;-73
2022/04/27 07:26:29;;;;;;;0.20;0.20;;;10.50;99.90;;;;;;5033100;28;20080;-73
2022/04/27 07:28:58;;;;;;;0.20;0.20;;;10.50;99.90;;;;;;5041703;28;20394;-73
2022/04/27 07:31:24;;;;;;;0.20;0.20;;;10.60;99.90;;;;;;5044449;28;20507;-73
2022/04/27 07:33:50;;;;;;;0.30;0.30;;;10.70;99.90;;;;;;5043590;28;20040;-73
2022/04/27 07:36:16;;;;;;;0.43;0.43;;;10.80;99.90;;;;;;5045699;28;20385;-73
2022/04/27 07:38:41;;;;;;;0.30;0.30;;;10.80;99.90;;;;;;5047254;28;20047;-73
2022/04/27 07:41:07;;;;;;;0.20;0.20;;;10.90;99.90;;;;;;5035027;28;20482;-73
2022/04/27 07:43:34;;;;;;;0.30;0.30;;;10.90;99.90;;;;;;5027638;28;20041;-73
2022/04/27 07:46:00;;;;;;;8.20;5.07;;;10.80;99.90;;;;;;5045985;28;20048;-73
2022/04/27 07:48:32;;;;;;;1.00;0.73;;;10.80;99.90;;;;;;5027827;28;20040;-73
2022/04/27 07:50:59;;;;;;;0.10;0.10;;;10.80;99.90;;;;;;5049083;28;20059;-74
2022/04/27 07:53:25;;;;;;;0.22;0.22;;;10.80;99.90;;;;;;5049364;28;20040;-73
2022/04/27 07:55:50;;;;;;;0.95;0.60;;;10.80;99.90;;;;;;5043331;28;20044;-73
2022/04/27 07:58:16;;;;;;;0.20;0.20;;;10.80;99.90;;;;;;5033531;28;20068;-73
2022/04/27 08:00:41;;;;;;;5.78;0.95;;;10.80;99.90;;;;;;5030453;28;20070;-73
2022/04/27 08:03:07;;;;;;;0.20;0.20;;;10.80;99.90;;;;;;5027518;28;20086;-73
2022/04/27 08:05:33;;;;;;;1.00;0.63;;;10.80;99.90;;;;;;5043111;28;20529;-73
2022/04/27 08:07:58;;;;;;;0.20;0.20;;;10.70;99.90;;;;;;5027900;28;20040;-73
2022/04/27 08:10:24;;;;;;;0.38;0.38;;;10.70;99.90;;;;;;5027197;28;20044;-73
2022/04/27 08:12:50;;;;;;;3.47;2.47;;;10.70;99.90;;;;;;5048154;28;20493;-73
2022/04/27 08:15:17;;;;;;;3.25;0.52;;;10.60;99.90;;;;;;5044655;28;20032;-73
2022/04/27 08:17:50;;;;;;;0.20;0.20;;;10.60;99.90;;;;;;5038411;28;20419;-73
2022/04/27 08:22:59;;;;;;;0.50;0.50;;;10.60;99.90;;;;;;5077136;28;20044;-73
2022/04/27 08:25:25;;;;;;;0.98;0.60;;;10.60;99.90;;;;;;5048491;28;20051;-73
2022/04/27 08:27:50;;;;;;;2.45;0.63;;;10.60;99.90;;;;;;5046564;28;20040;-73
2022/04/27 08:30:16;;;;;;;0.55;0.55;;;10.70;99.90;;;;;;5033559;28;20642;-74
2022/04/27 08:32:41;;;;;;;1.23;0.82;;;10.70;99.90;;;;;;5068671;28;20041;-73
2022/04/27 08:35:07;;;;;;;1.10;1.02;;;10.80;99.90;;;;;;5050068;28;20523;-73
2022/04/27 08:37:33;;;;;;;0.30;0.30;;;10.80;99.90;;;;;;5049437;28;20058;-73
2022/04/27 08:40:01;;;;;;;0.65;0.65;;;10.80;99.90;;;;;;5031672;28;20512;-73
2022/04/27 08:42:26;;;;;;;0.20;0.20;;;10.90;99.90;;;;;;5039871;28;20131;-74
2022/04/27 08:44:52;;;;;;;0.30;0.30;;;10.90;99.90;;;;;;5026408;28;20128;-73
2022/04/27 08:47:18;;;;;;;0.25;0.25;;;10.90;99.90;;;;;;5033740;28;20044;-73
2022/04/27 08:49:43;;;;;;;0.70;0.70;;;10.90;99.90;;;;;;5046736;28;20048;-73
2022/04/27 08:52:12;;;;;;;2.08;1.75;;;10.90;99.90;;;;;;5038507;28;20045;-73
2022/04/27 08:54:38;;;;;;;0.30;0.30;;;10.90;99.90;;;;;;5030171;28;20039;-73
2022/04/27 08:57:04;;;;;;;0.20;0.20;;;10.90;99.90;;;;;;5029495;28;20428;-73
2022/04/27 08:59:30;;;;;;;0.77;0.73;;;10.90;99.90;;;;;;5056533;28;20048;-73
2022/04/27 09:01:56;;;;;;;0.30;0.30;;;11.00;99.90;;;;;;5035917;28;20450;-73
2022/04/27 09:04:21;;;;;;;7.28;1.65;;;11.00;99.90;;;;;;5025919;28;20553;-73
2022/04/27 09:06:49;;;;;;;0.30;0.30;;;11.00;99.90;;;;;;5043049;28;20107;-73
2022/04/27 09:09:36;;;;;;;0.82;0.82;;;10.90;99.90;;;;;;5040533;28;20076;-73
2022/04/27 09:12:08;;;;;;;0.20;0.20;;;10.90;99.90;;;;;;5039957;28;20146;-73
2022/04/27 09:14:37;;;;;;;3.20;0.82;;;10.90;99.90;;;;;;5022856;28;20040;-74
2022/04/27 09:22:44;;;;;;;1.10;1.10;;;10.80;99.90;;;;;;5035953;28;20072;-73
2022/04/27 09:25:10;;;;;;;6.93;1.95;;;10.80;99.90;;;;;;5029674;28;20148;-73
2022/04/27 09:27:35;;;;;;;6.18;1.75;;;10.80;99.90;;;;;;5024236;28;20119;-73
2022/04/27 09:30:10;;;;;;;0.85;0.85;;;10.70;99.90;;;;;;5036197;28;20091;-73
2022/04/27 09:32:36;;;;;;;0.30;0.30;;;10.80;99.90;;;;;;5049125;28;20124;-73
2022/04/27 09:35:03;;;;;;;1.42;0.70;;;10.70;99.90;;;;;;5051809;28;20122;-73
2022/04/27 09:37:37;;;;;;;1.65;1.42;;;10.70;99.90;;;;;;5042943;28;20063;-73
2022/04/27 09:40:02;;;;;;;0.60;0.60;;;10.70;99.90;;;;;;5042231;28;20399;-73
2022/04/27 09:42:36;;;;;;;5.15;0.85;;;10.70;99.90;;;;;;5047768;28;20037;-73
2022/04/27 09:45:24;;;;;;;0.45;0.45;;;10.60;99.90;;;;;;5033187;28;20551;-73
2022/04/27 09:47:57;;;;;;;0.40;0.40;;;10.60;99.90;;;;;;5023858;28;20060;-73
2022/04/27 09:50:24;;;;;;;1.85;0.85;;;10.60;99.90;;;;;;5049014;28;20084;-72
2022/04/27 09:52:50;;;;;;;0.43;0.43;;;10.60;99.90;;;;;;5047907;28;20392;-73
2022/04/27 09:55:16;;;;;;;0.10;0.10;;;10.60;99.90;;;;;;5030420;28;20040;-73
2022/04/27 09:57:42;;;;;;;2.10;0.63;;;10.50;99.90;;;;;;5037562;28;20048;-72
2022/04/27 10:00:12;;;;;;;0.20;0.20;;;10.60;99.90;;;;;;5033524;28;20042;-73
2022/04/27 10:02:40;;;;;;;2.30;1.17;;;10.60;99.90;;;;;;5043453;28;20047;-73
2022/04/27 10:05:07;;;;;;;0.75;0.75;;;10.60;99.90;;;;;;5039269;28;20049;-73
2022/04/27 10:07:35;;;;;;;0.82;0.82;;;10.60;99.90;;;;;;5040696;28;20041;-73
2022/04/27 10:10:04;;;;;;;0.15;0.15;;;10.70;99.90;;;;;;5045713;28;20043;-73
2022/04/27 10:12:35;;;;;;;0.20;0.20;;;10.70;99.90;;;;;;5025100;28;20492;-73
2022/04/27 10:15:01;;;;;;;1.48;0.65;;;10.80;99.90;;;;;;5042998;28;20044;-73
2022/04/27 10:17:28;;;;;;;4.68;1.75;;;10.90;99.90;;;;;;5025412;28;20041;-73
2022/04/27 10:19:54;;;;;;;2.17;1.83;;;10.90;99.90;;;;;;5032415;28;20097;-72
2022/04/27 10:22:33;;;;;;;0.98;0.98;;;11.00;99.90;;;;;;5044762;28;20492;-72
2022/04/27 10:25:07;;;;;;;0.55;0.40;;;11.00;99.90;;;;;;5046881;28;20567;-73
2022/04/27 10:27:33;;;;;;;14.50;2.20;;;11.00;99.90;;;;;;5048961;28;20094;-73
2022/04/27 10:30:05;;;;;;;0.10;0.10;;;11.10;99.90;;;;;;5052800;28;20384;-72
2022/04/27 10:32:44;;;;;;;4.50;1.30;;;11.10;99.90;;;;;;5029211;28;20075;-72
2022/04/27 10:35:13;;;;;;;3.95;1.08;;;11.10;99.90;;;;;;5038169;28;20165;-73
2022/04/27 10:37:57;;;;;;;0.20;0.20;;;11.20;99.90;;;;;;5047381;28;20495;-72
2022/04/27 10:40:31;;;;;;;0.93;0.43;;;11.30;99.90;;;;;;5071697;28;20047;-73
2022/04/27 10:43:07;;;;;;;0.22;0.22;;;11.30;99.90;;;;;;5048758;28;20040;-73
2022/04/27 10:45:38;;;;;;;0.15;0.15;;;11.30;99.90;;;;;;5044379;28;20049;-72
2022/04/27 10:48:14;;;;;;;3.83;1.15;;;11.40;99.90;;;;;;5022970;28;20092;-73
2022/04/27 10:50:39;;;;;;;1.08;0.65;;;11.40;99.90;;;;;;5039656;28;20125;-73
2022/04/27 10:53:19;;;;;;;0.70;0.70;;;11.50;99.90;;;;;;5051083;28;20139;-73
2022/04/27 10:55:53;;;;;;;0.20;0.20;;;11.50;99.90;;;;;;5050272;28;20048;-73
2022/04/27 10:58:22;;;;;;;4.15;3.38;;;11.50;99.90;;;;;;5048111;28;20051;-72
2022/04/27 11:01:03;;;;;;;1.45;0.55;;;11.40;99.90;;;;;;5030285;28;20052;-73
2022/04/27 11:03:29;;;;;;;0.50;0.50;;;11.50;99.90;;;;;;5033029;28;20055;-73
2022/04/27 11:06:12;;;;;;;0.10;0.10;;;11.50;99.90;;;;;;5047386;28;20356;-73
2022/04/27 11:09:08;;;;;;;0.20;0.20;;;11.60;99.90;;;;;;5028307;28;20051;-73
2022/04/27 11:11:59;;;;;;;0.22;0.22;;;11.60;99.80;;;;;;5024356;28;20119;-73
2022/04/27 11:14:35;;;;;;;1.55;0.80;;;11.70;99.90;;;;;;5046962;28;20500;-73
2022/04/27 11:17:01;;;;;;;0.20;0.20;;;11.80;99.70;;;;;;5044729;28;20391;-73
2022/04/27 11:19:38;;;;;;;0.20;0.20;;;11.80;98.80;;;;;;5049060;28;20110;-73
2022/04/27 11:22:15;;;;;;;0.22;0.22;;;12.00;98.80;;;;;;5028364;28;20044;-72
2022/04/27 11:24:42;;;;;;;0.10;0.10;;;12.10;99.20;;;;;;5049690;28;20044;-72
2022/04/27 11:27:08;;;;;;;4.97;1.45;;;12.30;99.40;;;;;;5065022;28;20633;-73
2022/04/27 11:29:36;;;;;;;0.20;0.20;;;12.50;99.40;;;;;;5041720;28;20068;-73
2022/04/27 11:32:08;;;;;;;0.10;0.10;;;12.60;98.40;;;;;;5048728;28;20032;-72
2022/04/27 11:34:34;;;;;;;0.55;0.55;;;12.80;98.10;;;;;;5046875;28;20040;-72
2022/04/27 11:37:37;;;;;;;0.10;0.10;;;13.00;97.70;;;;;;5045481;28;20051;-72
2022/04/27 11:40:14;;;;;;;4.65;1.15;;;12.90;94.90;;;;;;4951344;28;20084;-73
2022/04/27 11:42:47;;;;;;;3.55;0.80;;;12.90;94.90;;;;;;5038316;28;20091;-73
2022/04/27 11:45:22;;;;;;;0.10;0.10;;;13.00;95.20;;;;;;5049198;28;20129;-73
2022/04/27 11:48:02;;;;;;;1.85;1.25;;;13.30;95.30;;;;;;5043523;28;20072;-73
2022/04/27 11:50:31;;;;;;;0.57;0.57;;;13.60;96.70;;;;;;5034402;28;20055;-73
2022/04/27 11:53:04;;;;;;;0.68;0.68;;;13.70;95.40;;;;;;5050792;28;20036;-73
2022/04/27 11:55:31;;;;;;;0.32;0.32;;;13.70;94.10;;;;;;5045018;28;20562;-73
2022/04/27 11:57:57;;;;;;;0.17;0.17;;;13.70;93.30;;;;;;5047914;28;20044;-73
2022/04/27 12:00:26;;;;;;;0.80;0.80;;;13.70;92.60;;;;;;5047475;28;20040;-72
2022/04/27 12:02:53;;;;;;;0.40;0.40;;;13.70;94.80;;;;;;5030490;28;20237;-73
2022/04/27 12:05:32;;;;;;;0.47;0.47;;;13.50;92.60;;;;;;5047342;28;20044;-73
2022/04/27 12:07:58;;;;;;;0.47;0.45;;;13.50;93.50;;;;;;5026161;28;20106;-73
2022/04/27 12:10:24;;;;;;;0.50;0.50;;;13.50;93.30;;;;;;5031801;28;20052;-74
2022/04/27 12:12:50;;;;;;;0.10;0.10;;;13.60;92.60;;;;;;5038357;28;20373;-73
2022/04/27 12:15:15;;;;;;;7.75;1.23;;;13.80;93.50;;;;;;5042134;28;20050;-73
2022/04/27 12:17:44;;;;;;;0.10;0.10;;;13.90;92.20;;;;;;5025035;28;20524;-73
2022/04/27 12:20:25;;;;;;;0.30;0.20;;;13.80;92.50;;;;;;5044224;28;20056;-73
2022/04/27 12:22:56;;;;;;;0.28;0.28;;;13.80;92.70;;;;;;5023241;28;20179;-73
2022/04/27 12:25:35;;;;;;;6.30;0.85;;;13.80;92.20;;;;;;5020157;28;20063;-72
2022/04/27 12:28:06;;;;;;;2.15;1.10;;;13.70;93.30;;;;;;5028325;28;20154;-73
2022/04/27 12:30:39;;;;;;;0.10;0.10;;;13.60;90.30;;;;;;5037495;28;20116;-73
2022/04/27 12:33:05;;;;;;;0.90;0.90;;;13.40;89.80;;;;;;5046844;28;20101;-73
2022/04/27 12:38:19;;;;;;;0.65;0.65;;;13.30;91.80;;;;;;5047790;28;20048;-73
2022/04/27 12:40:44;;;;;;;1.10;0.65;;;13.20;91.40;;;;;;5044829;28;20039;-73
2022/04/27 12:43:15;;;;;;;3.28;1.75;;;13.20;91.30;;;;;;5042966;28;20040;-73
2022/04/27 12:46:11;;;;;;;2.92;0.60;;;13.20;91.90;;;;;;5028123;28;20056;-73
2022/04/27 12:48:38;;;;;;;1.15;0.80;;;13.20;91.90;;;;;;5049196;28;20040;-73
2022/04/27 12:51:08;;;;;;;1.00;0.73;;;13.30;91.90;;;;;;5040880;28;20071;-73
2022/04/27 12:53:35;;;;;;;0.30;0.30;;;13.20;90.80;;;;;;5050412;28;20044;-73
2022/04/27 12:56:12;;;;;;;1.10;0.65;;;13.20;91.30;;;;;;5033524;28;20039;-73
2022/04/27 12:58:39;;;;;;;0.90;0.80;;;13.10;91.00;;;;;;5032750;28;20630;-72
2022/04/27 13:01:05;;;;;;;0.73;0.73;;;13.00;90.50;;;;;;5021161;28;20682;-73
2022/04/27 13:03:31;;;;;;;7.78;1.00;;;12.90;91.60;;;;;;5031123;28;20047;-73
2022/04/27 13:05:57;;;;;;;0.10;0.10;;;12.90;92.50;;;;;;5043372;28;20052;-73
2022/04/27 13:08:23;;;;;;;4.75;0.75;;;12.90;92.30;;;;;;5043599;28;20043;-73
2022/04/27 13:13:34;;;;;;;1.10;0.88;;;12.70;91.40;;;;;;5047478;28;20094;-73
2022/04/27 13:16:00;;;;;;;5.38;2.08;;;12.60;91.70;;;;;;5030780;28;20036;-73
2022/04/27 13:18:26;;;;;;;0.45;0.45;;;12.50;91.20;;;;;;5028554;28;20560;-73
2022/04/27 13:20:52;;;;;;;0.30;0.30;;;12.40;92.10;;;;;;5053303;28;20035;-73
2022/04/27 13:23:19;;;;;;;0.95;0.77;;;12.40;92.00;;;;;;5048050;28;20075;-73
2022/04/27 13:25:46;;;;;;;0.45;0.45;;;12.40;91.50;;;;;;5033228;28;20498;-73